createdAt,value
2017-02-21T00:00:01.660Z,94.7
2017-02-21T00:00:06.199Z,94.42
2017-02-21T00:00:10.685Z,94.51
2017-02-21T00:00:15.057Z,94.23
2017-02-21T00:00:19.693Z,93.94
2017-02-21T00:00:24.216Z,94.42
2017-02-21T00:00:28.856Z,94.42
2017-02-21T00:00:33.541Z,94.23
2017-02-21T00:00:38.197Z,94.32
2017-02-21T00:00:42.696Z,94.32
2017-02-21T00:00:47.340Z,94.13
2017-02-21T00:00:51.979Z,94.32
2017-02-21T00:00:56.628Z,94.42
2017-02-21T00:01:01.126Z,93.94
2017-02-21T00:01:05.759Z,94.13
2017-02-21T00:01:10.275Z,93.94
2017-02-21T00:01:14.797Z,93.84
2017-02-21T00:01:19.447Z,94.42
2017-02-21T00:01:23.974Z,94.42
2017-02-21T00:01:28.657Z,94.7
2017-02-21T00:01:33.154Z,94.23
2017-02-21T00:01:37.801Z,94.7
2017-02-21T00:01:42.300Z,95.17
2017-02-21T00:01:46.953Z,94.6
2017-02-21T00:01:51.450Z,94.6
2017-02-21T00:01:56.123Z,94.98
2017-02-21T00:02:00.780Z,94.89
2017-02-21T00:02:05.422Z,94.79
2017-02-21T00:02:09.919Z,94.7
2017-02-21T00:02:14.426Z,95.17
2017-02-21T00:02:18.947Z,94.7
2017-02-21T00:02:23.603Z,94.79
2017-02-21T00:02:27.976Z,94.6
2017-02-21T00:02:32.623Z,94.51
2017-02-21T00:02:37.269Z,94.51
2017-02-21T00:02:41.805Z,94.51
2017-02-21T00:02:46.139Z,95.17
2017-02-21T00:02:50.657Z,94.98
2017-02-21T00:02:55.165Z,95.46
2017-02-21T00:02:59.812Z,94.51
2017-02-21T00:03:04.753Z,95.08
2017-02-21T00:03:09.247Z,95.27
2017-02-21T00:03:13.963Z,95.17
2017-02-21T00:03:18.625Z,94.98
2017-02-21T00:03:23.161Z,95.17
2017-02-21T00:03:27.805Z,95.27
2017-02-21T00:03:32.460Z,95.27
2017-02-21T00:03:37.102Z,95.08
2017-02-21T00:03:41.467Z,95.46
2017-02-21T00:03:45.967Z,95.08
2017-02-21T00:03:50.460Z,94.98
2017-02-21T00:03:55.094Z,94.89
2017-02-21T00:03:59.587Z,94.79
2017-02-21T00:04:04.225Z,94.89
2017-02-21T00:04:08.568Z,94.89
2017-02-21T00:04:13.079Z,94.79
2017-02-21T00:04:17.728Z,94.98
2017-02-21T00:04:22.083Z,94.7
2017-02-21T00:04:26.737Z,94.89
2017-02-21T00:04:31.385Z,95.08
2017-02-21T00:04:36.036Z,95.17
2017-02-21T00:04:40.713Z,95.46
2017-02-21T00:04:45.234Z,94.7
2017-02-21T00:04:49.583Z,95.08
2017-02-21T00:04:54.240Z,95.94
2017-02-21T00:04:58.733Z,96.22
2017-02-21T00:05:03.547Z,96.12
2017-02-21T00:05:08.082Z,96.12
2017-02-21T00:05:12.725Z,96.03
2017-02-21T00:05:17.235Z,95.84
2017-02-21T00:05:21.901Z,96.03
2017-02-21T00:05:26.379Z,95.94
2017-02-21T00:05:31.047Z,96.6
2017-02-21T00:05:35.742Z,96.6
2017-02-21T00:05:40.386Z,96.79
2017-02-21T00:05:45.037Z,96.22
2017-02-21T00:05:49.703Z,96.03
2017-02-21T00:05:54.330Z,95.94
2017-02-21T00:05:58.973Z,95.94
2017-02-21T00:06:03.822Z,96.03
2017-02-21T00:06:08.348Z,96.5
2017-02-21T00:06:12.849Z,96.41
2017-02-21T00:06:17.481Z,96.22
2017-02-21T00:06:22.124Z,96.03
2017-02-21T00:06:26.778Z,95.75
2017-02-21T00:06:31.431Z,95.84
2017-02-21T00:06:35.927Z,95.84
2017-02-21T00:06:40.448Z,95.84
2017-02-21T00:06:45.079Z,96.03
2017-02-21T00:06:49.730Z,95.55
2017-02-21T00:06:54.411Z,95.36
2017-02-21T00:06:59.045Z,95.46
2017-02-21T00:07:03.701Z,95.55
2017-02-21T00:07:08.361Z,95.75
2017-02-21T00:07:12.993Z,96.12
2017-02-21T00:07:17.338Z,96.03
2017-02-21T00:07:21.983Z,96.22
2017-02-21T00:07:26.497Z,96.41
2017-02-21T00:07:31.177Z,96.31
2017-02-21T00:07:35.670Z,96.41
2017-02-21T00:07:40.310Z,96.22
2017-02-21T00:07:44.954Z,95.55
2017-02-21T00:07:49.297Z,96.12
2017-02-21T00:07:53.810Z,96.03
2017-02-21T00:07:58.437Z,96.03
2017-02-21T00:08:03.196Z,95.75
2017-02-21T00:08:07.578Z,95.84
2017-02-21T00:08:12.085Z,96.22
2017-02-21T00:08:16.614Z,96.03
2017-02-21T00:08:21.262Z,96.5
2017-02-21T00:08:25.910Z,95.94
2017-02-21T00:08:30.545Z,96.5
2017-02-21T00:08:35.197Z,96.03
2017-02-21T00:08:39.696Z,96.69
2017-02-21T00:08:44.334Z,96.03
2017-02-21T00:08:48.683Z,96.22
2017-02-21T00:08:53.172Z,96.6
2017-02-21T00:08:57.835Z,96.69
2017-02-21T00:09:02.614Z,95.94
2017-02-21T00:09:07.260Z,95.84
2017-02-21T00:09:11.740Z,95.94
2017-02-21T00:09:16.260Z,95.94
2017-02-21T00:09:20.911Z,95.94
2017-02-21T00:09:25.566Z,95.94
2017-02-21T00:09:30.230Z,95.84
2017-02-21T00:09:34.912Z,95.94
2017-02-21T00:09:39.275Z,95.27
2017-02-21T00:09:43.810Z,95.46
2017-02-21T00:09:48.312Z,95.36
2017-02-21T00:09:52.957Z,95.84
2017-02-21T00:09:57.621Z,96.22
2017-02-21T00:10:02.293Z,95.55
2017-02-21T00:10:06.775Z,95.46
2017-02-21T00:10:11.269Z,95.75
2017-02-21T00:10:15.920Z,95.94
2017-02-21T00:10:20.583Z,95.75
2017-02-21T00:10:25.086Z,96.03
2017-02-21T00:10:29.586Z,95.94
2017-02-21T00:10:34.238Z,95.36
2017-02-21T00:10:38.891Z,95.46
2017-02-21T00:10:43.538Z,95.55
2017-02-21T00:10:48.069Z,95.46
2017-02-21T00:10:52.698Z,95.75
2017-02-21T00:10:57.411Z,95.55
2017-02-21T00:11:02.051Z,96.12
2017-02-21T00:11:06.547Z,95.75
2017-02-21T00:11:11.198Z,95.46
2017-02-21T00:11:15.851Z,95.46
2017-02-21T00:11:20.506Z,95.46
2017-02-21T00:11:24.870Z,95.46
2017-02-21T00:11:29.371Z,96.12
2017-02-21T00:11:34.017Z,96.03
2017-02-21T00:11:38.516Z,95.84
2017-02-21T00:11:43.164Z,96.12
2017-02-21T00:11:47.516Z,96.12
2017-02-21T00:11:52.150Z,95.84
2017-02-21T00:11:56.799Z,95.94
2017-02-21T00:12:01.800Z,95.94
2017-02-21T00:12:06.430Z,96.6
2017-02-21T00:12:10.782Z,96.79
2017-02-21T00:12:15.303Z,96.69
2017-02-21T00:12:19.949Z,96.79
2017-02-21T00:12:24.441Z,96.5
2017-02-21T00:12:29.074Z,96.5
2017-02-21T00:12:33.737Z,96.69
2017-02-21T00:12:38.365Z,96.31
2017-02-21T00:12:43.008Z,96.31
2017-02-21T00:12:47.662Z,96.22
2017-02-21T00:12:52.171Z,96.31
2017-02-21T00:12:56.821Z,96.22
2017-02-21T00:13:01.465Z,96.41
2017-02-21T00:13:06.264Z,95.84
2017-02-21T00:13:10.757Z,96.41
2017-02-21T00:13:15.152Z,96.22
2017-02-21T00:13:19.802Z,96.5
2017-02-21T00:13:24.154Z,96.22
2017-02-21T00:13:28.817Z,96.12
2017-02-21T00:13:33.461Z,96.12
2017-02-21T00:13:38.091Z,96.69
2017-02-21T00:13:42.593Z,96.5
2017-02-21T00:13:47.103Z,96.12
2017-02-21T00:13:51.616Z,96.22
2017-02-21T00:13:55.956Z,96.03
2017-02-21T00:14:00.459Z,96.31
2017-02-21T00:14:05.352Z,96.22
2017-02-21T00:14:09.696Z,96.22
2017-02-21T00:14:14.214Z,96.12
2017-02-21T00:14:18.855Z,96.5
2017-02-21T00:14:23.498Z,96.31
2017-02-21T00:14:27.888Z,96.5
2017-02-21T00:14:32.525Z,96.03
2017-02-21T00:14:37.173Z,96.31
2017-02-21T00:14:41.836Z,96.22
2017-02-21T00:14:46.475Z,96.6
2017-02-21T00:14:50.993Z,96.88
2017-02-21T00:14:55.627Z,96.79
2017-02-21T00:15:00.260Z,96.69
2017-02-21T00:15:05.076Z,96.31
2017-02-21T00:15:09.714Z,96.31
2017-02-21T00:15:14.198Z,96.03
2017-02-21T00:15:18.562Z,96.88
2017-02-21T00:15:23.075Z,96.79
2017-02-21T00:15:27.581Z,96.31
2017-02-21T00:15:32.212Z,96.41
2017-02-21T00:15:36.862Z,96.12
2017-02-21T00:15:41.416Z,96.31
2017-02-21T00:15:46.063Z,96.22
2017-02-21T00:15:50.547Z,96.22
2017-02-21T00:15:55.050Z,96.41
2017-02-21T00:15:59.691Z,96.12
2017-02-21T00:16:04.357Z,96.22
2017-02-21T00:16:08.872Z,96.31
2017-02-21T00:16:13.497Z,96.5
2017-02-21T00:16:18.155Z,96.69
2017-02-21T00:16:22.664Z,96.5
2017-02-21T00:16:27.018Z,96.12
2017-02-21T00:16:31.681Z,96.69
2017-02-21T00:16:36.332Z,96.5
2017-02-21T00:16:40.691Z,96.6
2017-02-21T00:16:45.342Z,95.84
2017-02-21T00:16:49.696Z,96.03
2017-02-21T00:16:54.345Z,96.31
2017-02-21T00:16:58.856Z,96.31
2017-02-21T00:17:03.705Z,96.22
2017-02-21T00:17:08.202Z,96.41
2017-02-21T00:17:12.859Z,96.41
2017-02-21T00:17:17.483Z,96.88
2017-02-21T00:17:22.128Z,96.31
2017-02-21T00:17:26.517Z,96.22
2017-02-21T00:17:31.019Z,96.12
2017-02-21T00:17:35.528Z,96.12
2017-02-21T00:17:40.070Z,96.31
2017-02-21T00:17:44.788Z,96.5
2017-02-21T00:17:49.446Z,96.22
2017-02-21T00:17:53.931Z,96.41
2017-02-21T00:17:58.562Z,96.22
2017-02-21T00:18:03.189Z,96.69
2017-02-21T00:18:07.846Z,96.5
2017-02-21T00:18:12.354Z,96.22
2017-02-21T00:18:16.837Z,96.41
2017-02-21T00:18:21.474Z,96.22
2017-02-21T00:18:26.009Z,96.79
2017-02-21T00:18:30.655Z,97.27
2017-02-21T00:18:35.287Z,97.07
2017-02-21T00:18:39.931Z,96.79
2017-02-21T00:18:44.588Z,96.69
2017-02-21T00:18:49.234Z,97.36
2017-02-21T00:18:53.728Z,96.88
2017-02-21T00:18:58.364Z,96.88
2017-02-21T00:19:03.020Z,96.88
2017-02-21T00:19:07.535Z,97.55
2017-02-21T00:19:12.023Z,97.64
2017-02-21T00:19:16.522Z,97.45
2017-02-21T00:19:21.174Z,96.98
2017-02-21T00:19:25.678Z,97.07
2017-02-21T00:19:30.334Z,96.98
2017-02-21T00:19:34.836Z,97.27
2017-02-21T00:19:39.518Z,97.07
2017-02-21T00:19:44.152Z,97.45
2017-02-21T00:19:48.824Z,97.45
2017-02-21T00:19:53.464Z,96.98
2017-02-21T00:19:58.162Z,97.27
2017-02-21T00:20:02.649Z,97.45
2017-02-21T00:20:07.148Z,96.69
2017-02-21T00:20:11.642Z,97.27
2017-02-21T00:20:16.003Z,96.79
2017-02-21T00:20:20.663Z,96.79
2017-02-21T00:20:25.151Z,96.69
2017-02-21T00:20:29.637Z,97.27
2017-02-21T00:20:34.293Z,97.55
2017-02-21T00:20:38.933Z,97.27
2017-02-21T00:20:43.567Z,97.36
2017-02-21T00:20:48.108Z,97.36
2017-02-21T00:20:52.734Z,97.17
2017-02-21T00:20:57.231Z,97.07
2017-02-21T00:21:01.602Z,96.79
2017-02-21T00:21:06.244Z,96.69
2017-02-21T00:21:10.770Z,96.41
2017-02-21T00:21:15.436Z,96.6
2017-02-21T00:21:20.074Z,97.27
2017-02-21T00:21:24.571Z,96.69
2017-02-21T00:21:29.208Z,97.17
2017-02-21T00:21:33.714Z,97.36
2017-02-21T00:21:38.366Z,97.36
2017-02-21T00:21:42.864Z,97.36
2017-02-21T00:21:47.365Z,97.36
2017-02-21T00:21:51.880Z,97.36
2017-02-21T00:21:56.549Z,97.27
2017-02-21T00:22:01.196Z,97.07
2017-02-21T00:22:05.707Z,97.36
2017-02-21T00:22:10.079Z,97.36
2017-02-21T00:22:14.725Z,97.07
2017-02-21T00:22:19.359Z,97.27
2017-02-21T00:22:24.016Z,96.5
2017-02-21T00:22:28.713Z,96.88
2017-02-21T00:22:33.377Z,96.79
2017-02-21T00:22:37.871Z,96.88
2017-02-21T00:22:42.240Z,97.45
2017-02-21T00:22:46.886Z,96.69
2017-02-21T00:22:51.241Z,97.83
2017-02-21T00:22:55.896Z,98.02
2017-02-21T00:23:00.257Z,97.74
2017-02-21T00:23:04.893Z,97.55
2017-02-21T00:23:09.395Z,97.45
2017-02-21T00:23:13.907Z,97.55
2017-02-21T00:23:18.564Z,97.36
2017-02-21T00:23:23.231Z,97.64
2017-02-21T00:23:27.883Z,96.98
2017-02-21T00:23:32.535Z,97.36
2017-02-21T00:23:37.197Z,96.5
2017-02-21T00:23:41.732Z,97.45
2017-02-21T00:23:46.224Z,97.45
2017-02-21T00:23:50.733Z,97.07
2017-02-21T00:23:55.249Z,97.27
2017-02-21T00:23:59.880Z,97.17
2017-02-21T00:24:04.778Z,97.17
2017-02-21T00:24:09.304Z,97.07
2017-02-21T00:24:13.824Z,97.27
2017-02-21T00:24:18.469Z,96.88
2017-02-21T00:24:23.128Z,97.17
2017-02-21T00:24:27.626Z,97.17
2017-02-21T00:24:32.249Z,97.36
2017-02-21T00:24:36.909Z,96.98
2017-02-21T00:24:41.577Z,97.36
2017-02-21T00:24:46.070Z,97.36
2017-02-21T00:24:50.427Z,97.17
2017-02-21T00:24:55.062Z,97.36
2017-02-21T00:24:59.570Z,97.07
2017-02-21T00:25:04.226Z,97.07
2017-02-21T00:25:08.723Z,96.69
2017-02-21T00:25:13.368Z,96.88
2017-02-21T00:25:18.019Z,97.17
2017-02-21T00:25:22.370Z,97.07
2017-02-21T00:25:27.074Z,97.36
2017-02-21T00:25:31.570Z,97.17
2017-02-21T00:25:36.232Z,97.27
2017-02-21T00:25:40.740Z,97.27
2017-02-21T00:25:45.379Z,97.45
2017-02-21T00:25:49.883Z,96.88
2017-02-21T00:25:54.399Z,96.69
2017-02-21T00:25:59.053Z,96.79
2017-02-21T00:26:03.707Z,97.64
2017-02-21T00:26:08.383Z,97.36
2017-02-21T00:26:12.584Z,96.98
2017-02-21T00:26:17.247Z,97.83
2017-02-21T00:26:21.912Z,97.55
2017-02-21T00:26:26.258Z,98.02
2017-02-21T00:26:30.793Z,98.5
2017-02-21T00:26:35.459Z,98.31
2017-02-21T00:26:40.101Z,97.64
2017-02-21T00:26:44.752Z,98.02
2017-02-21T00:26:49.097Z,97.55
2017-02-21T00:26:53.625Z,97.55
2017-02-21T00:26:58.308Z,96.88
2017-02-21T00:27:02.844Z,97.36
2017-02-21T00:27:07.353Z,97.17
2017-02-21T00:27:12.019Z,97.07
2017-02-21T00:27:16.678Z,97.55
2017-02-21T00:27:21.327Z,98.12
2017-02-21T00:27:25.689Z,97.74
2017-02-21T00:27:30.332Z,97.74
2017-02-21T00:27:34.966Z,97.45
2017-02-21T00:27:39.640Z,97.36
2017-02-21T00:27:44.290Z,97.55
2017-02-21T00:27:48.814Z,97.74
2017-02-21T00:27:53.450Z,97.92
2017-02-21T00:27:58.096Z,97.74
2017-02-21T00:28:02.587Z,97.36
2017-02-21T00:28:07.248Z,97.74
2017-02-21T00:28:11.763Z,97.92
2017-02-21T00:28:16.393Z,97.74
2017-02-21T00:28:21.053Z,98.02
2017-02-21T00:28:25.544Z,98.5
2017-02-21T00:28:30.041Z,97.83
2017-02-21T00:28:34.721Z,97.74
2017-02-21T00:28:39.369Z,97.74
2017-02-21T00:28:43.881Z,97.55
2017-02-21T00:28:48.527Z,97.83
2017-02-21T00:28:53.008Z,97.83
2017-02-21T00:28:57.511Z,97.74
2017-02-21T00:29:02.296Z,97.55
2017-02-21T00:29:06.641Z,97.27
2017-02-21T00:29:11.302Z,97.92
2017-02-21T00:29:15.961Z,97.92
2017-02-21T00:29:20.602Z,97.83
2017-02-21T00:29:25.104Z,97.36
2017-02-21T00:29:29.744Z,97.55
2017-02-21T00:29:34.391Z,97.64
2017-02-21T00:29:38.894Z,97.07
2017-02-21T00:29:43.561Z,97.17
2017-02-21T00:29:48.051Z,97.07
2017-02-21T00:29:52.709Z,97.45
2017-02-21T00:29:57.409Z,97.74
2017-02-21T00:30:01.907Z,97.64
2017-02-21T00:30:06.401Z,97.74
2017-02-21T00:30:10.901Z,97.83
2017-02-21T00:30:15.604Z,97.92
2017-02-21T00:30:20.271Z,98.5
2017-02-21T00:30:24.760Z,98.21
2017-02-21T00:30:29.262Z,97.92
2017-02-21T00:30:33.906Z,98.02
2017-02-21T00:30:38.561Z,98.5
2017-02-21T00:30:43.238Z,97.45
2017-02-21T00:30:47.590Z,97.83
2017-02-21T00:30:52.238Z,98.31
2017-02-21T00:30:56.793Z,98.69
2017-02-21T00:31:01.439Z,98.4
2017-02-21T00:31:06.082Z,97.83
2017-02-21T00:31:10.717Z,97.83
2017-02-21T00:31:15.367Z,97.64
2017-02-21T00:31:20.028Z,97.36
2017-02-21T00:31:24.670Z,97.07
2017-02-21T00:31:29.332Z,97.27
2017-02-21T00:31:33.956Z,97.36
2017-02-21T00:31:38.594Z,97.45
2017-02-21T00:31:43.237Z,97.17
2017-02-21T00:31:47.759Z,97.83
2017-02-21T00:31:52.262Z,97.36
2017-02-21T00:31:56.907Z,97.45
2017-02-21T00:32:01.817Z,97.92
2017-02-21T00:32:06.478Z,97.64
2017-02-21T00:32:10.822Z,97.27
2017-02-21T00:32:15.348Z,97.45
2017-02-21T00:32:19.996Z,97.55
2017-02-21T00:32:24.639Z,97.27
2017-02-21T00:32:29.272Z,97.45
2017-02-21T00:32:33.899Z,97.74
2017-02-21T00:32:38.413Z,97.64
2017-02-21T00:32:42.938Z,97.74
2017-02-21T00:32:47.286Z,97.74
2017-02-21T00:32:51.930Z,97.92
2017-02-21T00:32:56.566Z,97.64
2017-02-21T00:33:01.066Z,97.92
2017-02-21T00:33:05.962Z,97.45
2017-02-21T00:33:10.357Z,98.02
2017-02-21T00:33:14.844Z,98.21
2017-02-21T00:33:19.494Z,97.74
2017-02-21T00:33:24.169Z,97.64
2017-02-21T00:33:28.669Z,98.31
2017-02-21T00:33:33.320Z,97.74
2017-02-21T00:33:37.996Z,97.83
2017-02-21T00:33:42.639Z,97.92
2017-02-21T00:33:47.296Z,97.45
2017-02-21T00:33:51.954Z,97.64
2017-02-21T00:33:56.590Z,97.74
2017-02-21T00:34:01.101Z,97.92
2017-02-21T00:34:05.755Z,98.5
2017-02-21T00:34:10.092Z,98.31
2017-02-21T00:34:14.284Z,98.12
2017-02-21T00:34:18.982Z,98.5
2017-02-21T00:34:23.475Z,98.12
2017-02-21T00:34:27.981Z,98.59
2017-02-21T00:34:32.621Z,98.5
2017-02-21T00:34:37.282Z,98.4
2017-02-21T00:34:41.929Z,98.59
2017-02-21T00:34:46.588Z,98.5
2017-02-21T00:34:51.298Z,98.5
2017-02-21T00:34:55.947Z,98.5
2017-02-21T00:35:00.592Z,97.55
2017-02-21T00:35:05.236Z,97.74
2017-02-21T00:35:09.728Z,97.64
2017-02-21T00:35:14.207Z,97.83
2017-02-21T00:35:18.867Z,97.92
2017-02-21T00:35:23.564Z,97.83
2017-02-21T00:35:28.096Z,97.36
2017-02-21T00:35:32.581Z,97.45
2017-02-21T00:35:37.234Z,97.27
2017-02-21T00:35:41.776Z,97.36
2017-02-21T00:35:46.428Z,98.02
2017-02-21T00:35:50.930Z,98.02
2017-02-21T00:35:55.580Z,97.92
2017-02-21T00:36:00.225Z,97.55
2017-02-21T00:36:05.053Z,97.45
2017-02-21T00:36:09.717Z,97.36
2017-02-21T00:36:14.254Z,97.45
2017-02-21T00:36:18.902Z,97.83
2017-02-21T00:36:23.555Z,97.64
2017-02-21T00:36:27.901Z,97.64
2017-02-21T00:36:32.547Z,97.92
2017-02-21T00:36:37.190Z,97.64
2017-02-21T00:36:41.824Z,97.55
2017-02-21T00:36:46.465Z,97.92
2017-02-21T00:36:50.965Z,97.45
2017-02-21T00:36:55.656Z,97.64
2017-02-21T00:37:00.316Z,97.55
2017-02-21T00:37:04.989Z,97.17
2017-02-21T00:37:09.638Z,97.55
2017-02-21T00:37:13.982Z,97.27
2017-02-21T00:37:18.626Z,97.36
2017-02-21T00:37:23.152Z,97.27
2017-02-21T00:37:27.815Z,97.83
2017-02-21T00:37:32.474Z,97.27
2017-02-21T00:37:37.145Z,97.45
2017-02-21T00:37:41.657Z,97.45
2017-02-21T00:37:46.170Z,97.45
2017-02-21T00:37:50.674Z,96.98
2017-02-21T00:37:55.334Z,97.55
2017-02-21T00:37:59.990Z,97.55
2017-02-21T00:38:04.635Z,97.07
2017-02-21T00:38:09.301Z,97.27
2017-02-21T00:38:13.642Z,96.98
2017-02-21T00:38:18.151Z,97.36
2017-02-21T00:38:22.788Z,97.27
2017-02-21T00:38:27.289Z,97.45
2017-02-21T00:38:31.923Z,97.45
2017-02-21T00:38:36.413Z,97.07
2017-02-21T00:38:41.060Z,96.5
2017-02-21T00:38:45.739Z,96.79
2017-02-21T00:38:50.426Z,96.79
2017-02-21T00:38:55.086Z,96.6
2017-02-21T00:38:59.601Z,96.69
2017-02-21T00:39:04.407Z,97.17
2017-02-21T00:39:09.135Z,97.17
2017-02-21T00:39:13.783Z,97.45
2017-02-21T00:39:18.424Z,97.17
2017-02-21T00:39:22.959Z,97.36
2017-02-21T00:39:27.443Z,97.45
2017-02-21T00:39:32.110Z,97.17
2017-02-21T00:39:36.760Z,97.36
2017-02-21T00:39:41.411Z,97.55
2017-02-21T00:39:46.054Z,97.17
2017-02-21T00:39:50.600Z,97.55
2017-02-21T00:39:55.234Z,97.27
2017-02-21T00:39:59.884Z,96.98
2017-02-21T00:40:04.526Z,97.17
2017-02-21T00:40:08.742Z,97.55
2017-02-21T00:40:13.241Z,97.27
2017-02-21T00:40:17.590Z,97.92
2017-02-21T00:40:22.237Z,97.36
2017-02-21T00:40:26.753Z,97.92
2017-02-21T00:40:31.379Z,97.83
2017-02-21T00:40:36.021Z,97.55
2017-02-21T00:40:40.677Z,97.64
2017-02-21T00:40:45.315Z,97.83
2017-02-21T00:40:49.813Z,97.45
2017-02-21T00:40:54.299Z,97.55
2017-02-21T00:40:58.791Z,97.83
2017-02-21T00:41:03.545Z,97.83
2017-02-21T00:41:08.201Z,97.92
2017-02-21T00:41:12.710Z,98.31
2017-02-21T00:41:17.369Z,98.4
2017-02-21T00:41:22.011Z,98.5
2017-02-21T00:41:26.512Z,97.83
2017-02-21T00:41:31.005Z,98.5
2017-02-21T00:41:35.638Z,97.64
2017-02-21T00:41:40.280Z,97.83
2017-02-21T00:41:44.928Z,97.92
2017-02-21T00:41:49.579Z,97.55
2017-02-21T00:41:54.215Z,97.64
2017-02-21T00:41:58.852Z,97.64
2017-02-21T00:42:03.498Z,97.74
2017-02-21T00:42:07.997Z,97.45
2017-02-21T00:42:12.528Z,97.83
2017-02-21T00:42:16.936Z,97.83
2017-02-21T00:42:21.435Z,97.74
2017-02-21T00:42:25.952Z,97.83
2017-02-21T00:42:30.620Z,97.74
2017-02-21T00:42:35.272Z,98.4
2017-02-21T00:42:39.753Z,98.12
2017-02-21T00:42:44.406Z,98.02
2017-02-21T00:42:48.914Z,98.59
2017-02-21T00:42:53.575Z,98.4
2017-02-21T00:42:58.060Z,98.21
2017-02-21T00:43:02.565Z,98.59
2017-02-21T00:43:07.205Z,98.31
2017-02-21T00:43:11.856Z,98.4
2017-02-21T00:43:16.386Z,98.5
2017-02-21T00:43:21.065Z,98.5
2017-02-21T00:43:25.578Z,98.59
2017-02-21T00:43:30.094Z,98.31
2017-02-21T00:43:34.740Z,98.4
2017-02-21T00:43:39.391Z,97.92
2017-02-21T00:43:43.886Z,98.12
2017-02-21T00:43:48.573Z,98.69
2017-02-21T00:43:53.229Z,98.4
2017-02-21T00:43:57.867Z,98.5
2017-02-21T00:44:02.659Z,98.02
2017-02-21T00:44:07.566Z,98.5
2017-02-21T00:44:12.052Z,97.64
2017-02-21T00:44:16.697Z,98.4
2017-02-21T00:44:21.358Z,97.45
2017-02-21T00:44:26.006Z,97.92
2017-02-21T00:44:30.663Z,97.92
2017-02-21T00:44:35.320Z,97.92
2017-02-21T00:44:39.824Z,97.92
2017-02-21T00:44:44.468Z,98.59
2017-02-21T00:44:48.821Z,98.69
2017-02-21T00:44:53.377Z,98.69
2017-02-21T00:44:58.022Z,98.59
2017-02-21T00:45:02.776Z,98.59
2017-02-21T00:45:07.435Z,98.5
2017-02-21T00:45:11.917Z,98.4
2017-02-21T00:45:16.264Z,98.5
2017-02-21T00:45:20.906Z,98.02
2017-02-21T00:45:25.564Z,98.12
2017-02-21T00:45:30.218Z,97.83
2017-02-21T00:45:34.857Z,98.5
2017-02-21T00:45:39.488Z,97.74
2017-02-21T00:45:43.997Z,97.92
2017-02-21T00:45:48.495Z,97.83
2017-02-21T00:45:52.977Z,97.55
2017-02-21T00:45:57.466Z,97.74
2017-02-21T00:46:01.832Z,98.21
2017-02-21T00:46:06.460Z,98.4
2017-02-21T00:46:10.984Z,98.21
2017-02-21T00:46:15.332Z,98.21
2017-02-21T00:46:19.980Z,98.5
2017-02-21T00:46:24.472Z,98.69
2017-02-21T00:46:28.837Z,97.74
2017-02-21T00:46:33.521Z,97.74
2017-02-21T00:46:38.162Z,97.64
2017-02-21T00:46:42.664Z,97.55
2017-02-21T00:46:47.304Z,97.83
2017-02-21T00:46:51.978Z,97.83
2017-02-21T00:46:56.481Z,98.12
2017-02-21T00:47:01.001Z,98.02
2017-02-21T00:47:05.772Z,97.74
2017-02-21T00:47:10.416Z,97.83
2017-02-21T00:47:15.061Z,97.27
2017-02-21T00:47:19.746Z,97.55
2017-02-21T00:47:24.245Z,97.55
2017-02-21T00:47:28.741Z,97.92
2017-02-21T00:47:33.248Z,97.45
2017-02-21T00:47:37.901Z,97.45
2017-02-21T00:47:42.558Z,97.55
2017-02-21T00:47:47.054Z,97.55
2017-02-21T00:47:51.692Z,97.55
2017-02-21T00:47:56.192Z,97.45
2017-02-21T00:48:00.558Z,97.07
2017-02-21T00:48:05.196Z,97.45
2017-02-21T00:48:09.849Z,97.36
2017-02-21T00:48:14.196Z,97.45
2017-02-21T00:48:18.691Z,97.45
2017-02-21T00:48:23.338Z,97.27
2017-02-21T00:48:27.838Z,97.55
2017-02-21T00:48:32.488Z,97.55
2017-02-21T00:48:37.125Z,97.74
2017-02-21T00:48:41.783Z,97.36
2017-02-21T00:48:46.284Z,97.45
2017-02-21T00:48:50.919Z,97.83
2017-02-21T00:48:55.594Z,97.55
2017-02-21T00:49:00.081Z,97.17
2017-02-21T00:49:04.736Z,97.07
2017-02-21T00:49:09.411Z,97.64
2017-02-21T00:49:13.909Z,97.55
2017-02-21T00:49:18.544Z,97.64
2017-02-21T00:49:23.057Z,98.21
2017-02-21T00:49:27.274Z,97.83
2017-02-21T00:49:31.905Z,97.64
2017-02-21T00:49:36.554Z,97.92
2017-02-21T00:49:41.206Z,97.74
2017-02-21T00:49:45.710Z,97.36
2017-02-21T00:49:50.352Z,97.55
2017-02-21T00:49:54.849Z,97.83
2017-02-21T00:49:59.521Z,97.83
2017-02-21T00:50:04.065Z,97.55
2017-02-21T00:50:08.717Z,97.55
2017-02-21T00:50:13.352Z,97.92
2017-02-21T00:50:17.992Z,97.55
2017-02-21T00:50:22.643Z,98.02
2017-02-21T00:50:27.282Z,97.55
2017-02-21T00:50:31.927Z,97.83
2017-02-21T00:50:36.571Z,97.83
2017-02-21T00:50:40.917Z,97.55
2017-02-21T00:50:45.445Z,97.45
2017-02-21T00:50:49.963Z,97.92
2017-02-21T00:50:54.629Z,97.83
2017-02-21T00:50:59.281Z,97.36
2017-02-21T00:51:03.967Z,97.45
2017-02-21T00:51:08.619Z,97.55
2017-02-21T00:51:13.257Z,97.45
2017-02-21T00:51:17.755Z,97.92
2017-02-21T00:51:22.432Z,98.5
2017-02-21T00:51:26.775Z,97.92
2017-02-21T00:51:31.257Z,97.92
2017-02-21T00:51:35.933Z,97.83
2017-02-21T00:51:40.641Z,97.83
2017-02-21T00:51:45.292Z,97.92
2017-02-21T00:51:49.807Z,98.69
2017-02-21T00:51:54.317Z,98.4
2017-02-21T00:51:58.986Z,98.5
2017-02-21T00:52:03.630Z,98.69
2017-02-21T00:52:07.849Z,98.5
2017-02-21T00:52:12.347Z,98.02
2017-02-21T00:52:16.851Z,98.59
2017-02-21T00:52:21.497Z,98.5
2017-02-21T00:52:26.001Z,98.4
2017-02-21T00:52:30.503Z,98.69
2017-02-21T00:52:35.144Z,98.21
2017-02-21T00:52:39.627Z,98.4
2017-02-21T00:52:44.275Z,98.31
2017-02-21T00:52:48.783Z,98.31
2017-02-21T00:52:53.467Z,98.4
2017-02-21T00:52:58.106Z,98.4
2017-02-21T00:53:02.865Z,97.64
2017-02-21T00:53:07.359Z,98.4
2017-02-21T00:53:12.016Z,98.31
2017-02-21T00:53:16.509Z,97.74
2017-02-21T00:53:21.163Z,97.83
2017-02-21T00:53:25.517Z,98.02
2017-02-21T00:53:30.008Z,97.83
2017-02-21T00:53:34.649Z,97.92
2017-02-21T00:53:39.283Z,98.02
2017-02-21T00:53:43.938Z,97.92
2017-02-21T00:53:48.422Z,97.83
2017-02-21T00:53:52.946Z,97.27
2017-02-21T00:53:57.445Z,98.02
2017-02-21T00:54:02.080Z,97.74
2017-02-21T00:54:06.579Z,97.92
2017-02-21T00:54:10.790Z,98.69
2017-02-21T00:54:15.137Z,97.92
2017-02-21T00:54:19.778Z,98.5
2017-02-21T00:54:24.280Z,97.92
2017-02-21T00:54:28.787Z,97.83
2017-02-21T00:54:33.443Z,97.64
2017-02-21T00:54:38.096Z,97.92
2017-02-21T00:54:42.439Z,97.64
2017-02-21T00:54:46.930Z,97.92
2017-02-21T00:54:51.435Z,98.4
2017-02-21T00:54:55.936Z,98.69
2017-02-21T00:55:00.442Z,98.4
2017-02-21T00:55:04.959Z,98.69
2017-02-21T00:55:09.341Z,98.5
2017-02-21T00:55:13.847Z,98.5
2017-02-21T00:55:18.488Z,98.4
2017-02-21T00:55:23.140Z,98.4
2017-02-21T00:55:27.490Z,98.5
2017-02-21T00:55:32.137Z,98.5
2017-02-21T00:55:36.793Z,98.5
2017-02-21T00:55:41.298Z,98.5
2017-02-21T00:55:45.801Z,98.12
2017-02-21T00:55:50.333Z,98.5
2017-02-21T00:55:54.986Z,98.5
2017-02-21T00:55:59.650Z,98.69
2017-02-21T00:56:04.671Z,98.21
2017-02-21T00:56:09.159Z,98.21
2017-02-21T00:56:13.502Z,98.5
2017-02-21T00:56:18.142Z,98.4
2017-02-21T00:56:22.790Z,98.31
2017-02-21T00:56:27.330Z,98.5
2017-02-21T00:56:31.831Z,98.21
2017-02-21T00:56:36.488Z,98.12
2017-02-21T00:56:41.147Z,98.21
2017-02-21T00:56:45.650Z,98.31
2017-02-21T00:56:50.331Z,98.59
2017-02-21T00:56:54.979Z,98.21
2017-02-21T00:56:59.623Z,98.4
2017-02-21T00:57:04.263Z,98.4
2017-02-21T00:57:08.624Z,98.5
2017-02-21T00:57:13.119Z,98.59
2017-02-21T00:57:17.775Z,98.5
2017-02-21T00:57:22.280Z,98.21
2017-02-21T00:57:26.762Z,97.64
2017-02-21T00:57:31.419Z,97.55
2017-02-21T00:57:35.918Z,98.5
2017-02-21T00:57:40.423Z,98.5
2017-02-21T00:57:45.065Z,98.02
2017-02-21T00:57:49.703Z,98.4
2017-02-21T00:57:54.351Z,97.64
2017-02-21T00:57:59.009Z,98.31
2017-02-21T00:58:03.815Z,98.5
2017-02-21T00:58:08.313Z,97.92
2017-02-21T00:58:12.851Z,97.55
2017-02-21T00:58:17.195Z,97.64
2017-02-21T00:58:21.851Z,97.55
2017-02-21T00:58:26.514Z,98.31
2017-02-21T00:58:31.146Z,97.74
2017-02-21T00:58:35.643Z,97.92
2017-02-21T00:58:40.156Z,97.92
2017-02-21T00:58:44.799Z,97.92
2017-02-21T00:58:49.305Z,97.92
2017-02-21T00:58:53.796Z,97.74
2017-02-21T00:58:58.442Z,97.6
2017-02-21T00:59:03.387Z,98.02
2017-02-21T00:59:08.018Z,97.83
2017-02-21T00:59:12.532Z,97.83